Amherst, Virginia
Current Conditions -  °F | °C
As of 3:54 AM on Friday 28 Nov 2014 (Local Time) from KLYH Reporting Station
Few Clouds Few Clouds  
Wind Chill: 26°   Ceiling: Unl
Heat Index: 26°   Visibility: NA
Dew Point: 20°   Wind: 3mph
Humidity: 78%   Direction: 210°SSW
Pressure: 30.26"   Gusts: NA
Location:  37.59°N, 79.05°W
Report Text: KLYH 280854Z AUTO 21003KT FEW050 M03/M07 A3026 RMK AO2 SLP254 T10331067 50007 $
Loading
Personal Weather Stations






























Interactive Weather Map New forecast layout! Learn more

10-Day Weather Forecast

Advertisements
Track Severe Weather on mobile